sensor_id;sensor_type;location;lat;lon;timestamp;pressure;altitude;pressure_sealevel;temperature;humidity
23281;BME280;11809;56.390;-3.266;2022-07-23T00:01:32;101433.72;;;19.37;60.97
23281;BME280;11809;56.390;-3.266;2022-07-23T00:03:59;101443.44;;;19.38;60.97
23281;BME280;11809;56.390;-3.266;2022-07-23T00:06:26;101431.06;;;19.37;60.84
23281;BME280;11809;56.390;-3.266;2022-07-23T00:08:53;101431.06;;;19.37;60.82
23281;BME280;11809;56.390;-3.266;2022-07-23T00:11:20;101421.25;;;19.38;60.83
23281;BME280;11809;56.390;-3.266;2022-07-23T00:13:48;101424.84;;;19.36;60.91
23281;BME280;11809;56.390;-3.266;2022-07-23T00:16:15;101423.06;;;19.37;61.17
23281;BME280;11809;56.390;-3.266;2022-07-23T00:18:42;101417.72;;;19.37;60.94
23281;BME280;11809;56.390;-3.266;2022-07-23T00:21:09;101420.38;;;19.37;60.86
23281;BME280;11809;56.390;-3.266;2022-07-23T00:23:36;101415.91;;;19.38;60.96
23281;BME280;11809;56.390;-3.266;2022-07-23T00:26:02;101406.19;;;19.36;61.33
23281;BME280;11809;56.390;-3.266;2022-07-23T00:28:29;101413.34;;;19.36;61.03
23281;BME280;11809;56.390;-3.266;2022-07-23T00:30:56;101409.72;;;19.37;61.09
23281;BME280;11809;56.390;-3.266;2022-07-23T00:33:23;101408.88;;;19.36;61.00
23281;BME280;11809;56.390;-3.266;2022-07-23T00:35:50;101416.00;;;19.36;60.74
23281;BME280;11809;56.390;-3.266;2022-07-23T00:38:17;101413.34;;;19.36;60.90
23281;BME280;11809;56.390;-3.266;2022-07-23T00:40:43;101414.28;;;19.35;61.01
23281;BME280;11809;56.390;-3.266;2022-07-23T00:43:10;101408.94;;;19.35;61.26
23281;BME280;11809;56.390;-3.266;2022-07-23T00:45:37;101401.81;;;19.35;60.91
23281;BME280;11809;56.390;-3.266;2022-07-23T00:48:04;101404.47;;;19.35;60.97
23281;BME280;11809;56.390;-3.266;2022-07-23T00:50:31;101408.94;;;19.35;61.03
23281;BME280;11809;56.390;-3.266;2022-07-23T00:52:58;101386.88;;;19.33;61.13
23281;BME280;11809;56.390;-3.266;2022-07-23T00:55:25;101383.25;;;19.34;61.07
23281;BME280;11809;56.390;-3.266;2022-07-23T00:57:51;101377.06;;;19.33;60.67
23281;BME280;11809;56.390;-3.266;2022-07-23T01:00:19;101378.78;;;19.34;60.96
23281;BME280;11809;56.390;-3.266;2022-07-23T01:02:46;101366.41;;;19.33;61.16
23281;BME280;11809;56.390;-3.266;2022-07-23T01:05:14;101372.59;;;19.34;61.04
23281;BME280;11809;56.390;-3.266;2022-07-23T01:07:41;101367.28;;;19.34;61.29
23281;BME280;11809;56.390;-3.266;2022-07-23T01:10:08;101352.22;;;19.33;61.05
23281;BME280;11809;56.390;-3.266;2022-07-23T01:12:55;101361.94;;;19.34;61.23
23281;BME280;11809;56.390;-3.266;2022-07-23T01:15:22;101363.84;;;19.32;61.09
23281;BME280;11809;56.390;-3.266;2022-07-23T01:17:49;101360.22;;;19.33;61.32
23281;BME280;11809;56.390;-3.266;2022-07-23T01:20:16;101370.88;;;19.33;61.14
23281;BME280;11809;56.390;-3.266;2022-07-23T01:22:43;101360.34;;;19.31;60.98
23281;BME280;11809;56.390;-3.266;2022-07-23T01:25:11;101355.88;;;19.32;61.13
23281;BME280;11809;56.390;-3.266;2022-07-23T01:27:37;101358.53;;;19.32;61.26
23281;BME280;11809;56.390;-3.266;2022-07-23T01:30:04;101348.81;;;19.31;61.11
23281;BME280;11809;56.390;-3.266;2022-07-23T01:32:31;101346.16;;;19.31;60.78
23281;BME280;11809;56.390;-3.266;2022-07-23T01:34:58;101339.94;;;19.30;61.06
23281;BME280;11809;56.390;-3.266;2022-07-23T01:37:25;101337.22;;;19.32;61.12
23281;BME280;11809;56.390;-3.266;2022-07-23T01:39:52;101333.75;;;19.30;61.09
23281;BME280;11809;56.390;-3.266;2022-07-23T01:42:18;101335.47;;;19.31;60.93
23281;BME280;11809;56.390;-3.266;2022-07-23T01:44:45;101337.28;;;19.30;61.22
23281;BME280;11809;56.390;-3.266;2022-07-23T01:47:12;101328.44;;;19.30;61.10
23281;BME280;11809;56.390;-3.266;2022-07-23T01:49:39;101329.28;;;19.30;61.05
23281;BME280;11809;56.390;-3.266;2022-07-23T01:52:06;101329.28;;;19.30;61.08
23281;BME280;11809;56.390;-3.266;2022-07-23T01:54:37;101316.09;;;19.29;61.05
23281;BME280;11809;56.390;-3.266;2022-07-23T01:57:05;101311.56;;;19.29;61.04
23281;BME280;11809;56.390;-3.266;2022-07-23T01:59:32;101308.09;;;19.29;60.94
23281;BME280;11809;56.390;-3.266;2022-07-23T02:01:59;101305.41;;;19.29;60.84
23281;BME280;11809;56.390;-3.266;2022-07-23T02:04:26;101305.41;;;19.29;60.89
23281;BME280;11809;56.390;-3.266;2022-07-23T02:06:53;101309.88;;;19.28;60.90
23281;BME280;11809;56.390;-3.266;2022-07-23T02:09:20;101315.22;;;19.28;60.67
23281;BME280;11809;56.390;-3.266;2022-07-23T02:11:46;101315.31;;;19.27;60.61
23281;BME280;11809;56.390;-3.266;2022-07-23T02:14:13;101313.50;;;19.27;60.93
23281;BME280;11809;56.390;-3.266;2022-07-23T02:16:40;101312.63;;;19.27;61.07
23281;BME280;11809;56.390;-3.266;2022-07-23T02:19:07;101312.63;;;19.27;60.88
23281;BME280;11809;56.390;-3.266;2022-07-23T02:21:34;101309.97;;;19.27;61.01
23281;BME280;11809;56.390;-3.266;2022-07-23T02:24:00;101308.28;;;19.26;60.96
23281;BME280;11809;56.390;-3.266;2022-07-23T02:26:27;101303.91;;;19.25;61.37
23281;BME280;11809;56.390;-3.266;2022-07-23T02:28:54;101300.28;;;19.26;61.04
23281;BME280;11809;56.390;-3.266;2022-07-23T02:31:21;101299.44;;;19.25;61.03
23281;BME280;11809;56.390;-3.266;2022-07-23T02:33:48;101294.97;;;19.26;60.82
23281;BME280;11809;56.390;-3.266;2022-07-23T02:36:14;101294.97;;;19.26;61.05
23281;BME280;11809;56.390;-3.266;2022-07-23T02:38:41;101293.03;;;19.28;61.01
23281;BME280;11809;56.390;-3.266;2022-07-23T02:41:08;101285.03;;;19.28;61.02
23281;BME280;11809;56.390;-3.266;2022-07-23T02:43:35;101287.72;;;19.28;61.08
23281;BME280;11809;56.390;-3.266;2022-07-23T02:46:02;101295.59;;;19.29;60.95
23281;BME280;11809;56.390;-3.266;2022-07-23T02:48:28;101293.97;;;19.27;60.99
23281;BME280;11809;56.390;-3.266;2022-07-23T02:50:55;101289.63;;;19.26;61.22
23281;BME280;11809;56.390;-3.266;2022-07-23T02:53:23;101289.63;;;19.26;61.10
23281;BME280;11809;56.390;-3.266;2022-07-23T02:55:49;101296.75;;;19.25;61.38
23281;BME280;11809;56.390;-3.266;2022-07-23T02:58:16;101291.53;;;19.24;61.05
23281;BME280;11809;56.390;-3.266;2022-07-23T03:00:43;101295.03;;;19.24;60.82
23281;BME280;11809;56.390;-3.266;2022-07-23T03:03:10;101290.69;;;19.23;61.21
23281;BME280;11809;56.390;-3.266;2022-07-23T03:05:37;101296.88;;;19.24;60.81
23281;BME280;11809;56.390;-3.266;2022-07-23T03:08:03;101284.50;;;19.23;61.06
23281;BME280;11809;56.390;-3.266;2022-07-23T03:10:30;101290.69;;;19.23;61.13
23281;BME280;11809;56.390;-3.266;2022-07-23T03:12:57;101294.28;;;19.22;61.04
23281;BME280;11809;56.390;-3.266;2022-07-23T03:15:24;101294.28;;;19.22;61.19
23281;BME280;11809;56.390;-3.266;2022-07-23T03:17:50;101297.06;;;19.21;61.22
23281;BME280;11809;56.390;-3.266;2022-07-23T03:20:17;101290.03;;;19.20;61.38
23281;BME280;11809;56.390;-3.266;2022-07-23T03:22:44;101297.06;;;19.21;61.26
23281;BME280;11809;56.390;-3.266;2022-07-23T03:25:11;101288.09;;;19.22;61.10
23281;BME280;11809;56.390;-3.266;2022-07-23T03:27:37;101291.63;;;19.22;61.30
23281;BME280;11809;56.390;-3.266;2022-07-23T03:30:04;101286.41;;;19.21;61.11
23281;BME280;11809;56.390;-3.266;2022-07-23T03:32:31;101275.84;;;19.19;60.96
23281;BME280;11809;56.390;-3.266;2022-07-23T03:34:58;101272.31;;;19.19;61.01
23281;BME280;11809;56.390;-3.266;2022-07-23T03:37:25;101272.31;;;19.19;61.21
23281;BME280;11809;56.390;-3.266;2022-07-23T03:39:52;101266.97;;;19.19;61.44
23281;BME280;11809;56.390;-3.266;2022-07-23T03:42:19;101261.66;;;19.19;61.28
23281;BME280;11809;56.390;-3.266;2022-07-23T03:44:46;101262.63;;;19.18;61.20
23281;BME280;11809;56.390;-3.266;2022-07-23T03:47:12;101251.09;;;19.17;61.25
23281;BME280;11809;56.390;-3.266;2022-07-23T03:49:39;101259.97;;;19.18;61.30
23281;BME280;11809;56.390;-3.266;2022-07-23T03:52:06;101250.25;;;19.17;61.25
23281;BME280;11809;56.390;-3.266;2022-07-23T03:54:33;101260.91;;;19.17;61.13
23281;BME280;11809;56.390;-3.266;2022-07-23T03:57:00;101252.91;;;19.17;61.08
23281;BME280;11809;56.390;-3.266;2022-07-23T03:59:26;101259.22;;;19.16;61.30
23281;BME280;11809;56.390;-3.266;2022-07-23T04:01:53;101253.88;;;19.16;61.19
23281;BME280;11809;56.390;-3.266;2022-07-23T04:04:20;101259.22;;;19.16;61.25
23281;BME280;11809;56.390;-3.266;2022-07-23T04:06:47;101253.97;;;19.14;61.04
23281;BME280;11809;56.390;-3.266;2022-07-23T04:09:14;101259.31;;;19.14;61.08
23281;BME280;11809;56.390;-3.266;2022-07-23T04:11:40;101260.16;;;19.15;61.34
23281;BME280;11809;56.390;-3.266;2022-07-23T04:14:07;101251.41;;;19.13;61.20
23281;BME280;11809;56.390;-3.266;2022-07-23T04:16:34;101246.97;;;19.13;61.26
23281;BME280;11809;56.390;-3.266;2022-07-23T04:19:01;101247.91;;;19.12;61.30
23281;BME280;11809;56.390;-3.266;2022-07-23T04:21:31;101239.03;;;19.12;61.18
23281;BME280;11809;56.390;-3.266;2022-07-23T04:23:58;101241.72;;;19.12;61.07
23281;BME280;11809;56.390;-3.266;2022-07-23T04:26:24;101235.44;;;19.13;60.89
23281;BME280;11809;56.390;-3.266;2022-07-23T04:28:51;101232.00;;;19.11;61.23
23281;BME280;11809;56.390;-3.266;2022-07-23T04:31:18;101236.38;;;19.12;60.94
23281;BME280;11809;56.390;-3.266;2022-07-23T04:33:45;101227.63;;;19.10;61.34
23281;BME280;11809;56.390;-3.266;2022-07-23T04:36:11;101226.78;;;19.09;61.33
23281;BME280;11809;56.390;-3.266;2022-07-23T04:38:38;101226.66;;;19.11;61.21
23281;BME280;11809;56.390;-3.266;2022-07-23T04:41:05;101226.78;;;19.09;61.26
23281;BME280;11809;56.390;-3.266;2022-07-23T04:43:32;101224.13;;;19.09;61.29
23281;BME280;11809;56.390;-3.266;2022-07-23T04:45:58;101213.47;;;19.09;61.33
23281;BME280;11809;56.390;-3.266;2022-07-23T04:48:25;101217.06;;;19.08;61.26
23281;BME280;11809;56.390;-3.266;2022-07-23T04:50:53;101213.66;;;19.06;61.40
23281;BME280;11809;56.390;-3.266;2022-07-23T04:53:20;101213.56;;;19.08;61.30
23281;BME280;11809;56.390;-3.266;2022-07-23T04:55:47;101213.56;;;19.08;61.26
23281;BME280;11809;56.390;-3.266;2022-07-23T04:58:14;101211.84;;;19.07;61.24
23281;BME280;11809;56.390;-3.266;2022-07-23T05:00:40;101209.19;;;19.07;61.27
23281;BME280;11809;56.390;-3.266;2022-07-23T05:03:07;101205.66;;;19.06;61.23
23281;BME280;11809;56.390;-3.266;2022-07-23T05:05:34;101209.19;;;19.07;61.39
23281;BME280;11809;56.390;-3.266;2022-07-23T05:08:02;101202.13;;;19.06;61.39
23281;BME280;11809;56.390;-3.266;2022-07-23T05:10:29;101206.53;;;19.07;61.26
23281;BME280;11809;56.390;-3.266;2022-07-23T05:12:55;101198.53;;;19.07;61.19
23281;BME280;11809;56.390;-3.266;2022-07-23T05:15:22;101203.88;;;19.07;61.33
23281;BME280;11809;56.390;-3.266;2022-07-23T05:17:49;101191.50;;;19.06;61.43
23281;BME280;11809;56.390;-3.266;2022-07-23T05:20:16;101201.31;;;19.05;61.63
23281;BME280;11809;56.390;-3.266;2022-07-23T05:22:43;101204.81;;;19.06;61.29
23281;BME280;11809;56.390;-3.266;2022-07-23T05:25:10;101197.78;;;19.05;61.56
23281;BME280;11809;56.390;-3.266;2022-07-23T05:27:36;101202.13;;;19.06;61.35
23281;BME280;11809;56.390;-3.266;2022-07-23T05:30:03;101205.78;;;19.05;61.38
23281;BME280;11809;56.390;-3.266;2022-07-23T05:32:33;101196.81;;;19.06;61.16
23281;BME280;11809;56.390;-3.266;2022-07-23T05:35:00;101196.06;;;19.04;61.29
23281;BME280;11809;56.390;-3.266;2022-07-23T05:37:27;101192.47;;;19.05;61.36
23281;BME280;11809;56.390;-3.266;2022-07-23T05:39:54;101201.41;;;19.04;61.36
23281;BME280;11809;56.390;-3.266;2022-07-23T05:42:21;101208.44;;;19.05;61.31
23281;BME280;11809;56.390;-3.266;2022-07-23T05:44:48;101196.06;;;19.04;61.28
23281;BME280;11809;56.390;-3.266;2022-07-23T05:47:14;101204.06;;;19.04;61.26
23281;BME280;11809;56.390;-3.266;2022-07-23T05:49:41;101191.72;;;19.03;61.43
23281;BME280;11809;56.390;-3.266;2022-07-23T05:52:08;101195.97;;;19.05;61.37
23281;BME280;11809;56.390;-3.266;2022-07-23T05:54:35;101195.97;;;19.05;61.56
23281;BME280;11809;56.390;-3.266;2022-07-23T05:57:02;101188.41;;;18.99;61.22
23281;BME280;11809;56.390;-3.266;2022-07-23T05:59:29;101196.91;;;18.92;61.24
23281;BME280;11809;56.390;-3.266;2022-07-23T06:01:56;101192.72;;;18.88;61.25
23281;BME280;11809;56.390;-3.266;2022-07-23T06:04:23;101187.03;;;18.80;61.70
23281;BME280;11809;56.390;-3.266;2022-07-23T06:06:50;101185.53;;;18.75;61.60
23281;BME280;11809;56.390;-3.266;2022-07-23T06:09:17;101186.88;;;18.68;61.92
23281;BME280;11809;56.390;-3.266;2022-07-23T06:11:44;101186.13;;;18.66;62.18
23281;BME280;11809;56.390;-3.266;2022-07-23T06:14:11;101181.78;;;18.65;62.13
23281;BME280;11809;56.390;-3.266;2022-07-23T06:16:38;101187.09;;;18.65;62.33
23281;BME280;11809;56.390;-3.266;2022-07-23T06:19:04;101178.34;;;18.63;62.18
23281;BME280;11809;56.390;-3.266;2022-07-23T06:21:31;101172.06;;;18.64;62.67
23281;BME280;11809;56.390;-3.266;2022-07-23T06:24:12;101174.22;;;18.72;62.15
23281;BME280;11809;56.390;-3.266;2022-07-23T06:26:39;101168.59;;;18.76;62.26
23281;BME280;11809;56.390;-3.266;2022-07-23T06:29:06;101168.38;;;18.80;62.39
23281;BME280;11809;56.390;-3.266;2022-07-23T06:31:33;101173.53;;;18.83;62.54
23281;BME280;11809;56.390;-3.266;2022-07-23T06:34:00;101167.25;;;18.84;62.59
23281;BME280;11809;56.390;-3.266;2022-07-23T06:36:27;101168.13;;;18.84;62.43
23281;BME280;11809;56.390;-3.266;2022-07-23T06:38:54;101170.66;;;18.86;62.46
23281;BME280;11809;56.390;-3.266;2022-07-23T06:41:20;101167.06;;;18.87;62.53
23281;BME280;11809;56.390;-3.266;2022-07-23T06:43:49;101173.13;;;18.89;62.44
23281;BME280;11809;56.390;-3.266;2022-07-23T06:46:16;101164.16;;;18.90;62.65
23281;BME280;11809;56.390;-3.266;2022-07-23T06:48:43;101155.22;;;18.91;62.63
23281;BME280;11809;56.390;-3.266;2022-07-23T06:51:09;101171.00;;;18.94;62.54
23281;BME280;11809;56.390;-3.266;2022-07-23T06:53:36;101163.88;;;18.94;62.61
23281;BME280;11809;56.390;-3.266;2022-07-23T06:56:03;101151.41;;;18.95;62.44
23281;BME280;11809;56.390;-3.266;2022-07-23T06:58:30;101149.50;;;18.97;62.71
23281;BME280;11809;56.390;-3.266;2022-07-23T07:00:57;101148.53;;;18.98;62.73
23281;BME280;11809;56.390;-3.266;2022-07-23T07:03:24;101147.56;;;18.99;62.67
23281;BME280;11809;56.390;-3.266;2022-07-23T07:05:50;101151.19;;;18.98;62.80
23281;BME280;11809;56.390;-3.266;2022-07-23T07:08:18;101156.31;;;19.01;62.46
23281;BME280;11809;56.390;-3.266;2022-07-23T07:10:45;101155.44;;;19.00;62.63
23281;BME280;11809;56.390;-3.266;2022-07-23T07:13:12;101146.44;;;19.03;62.65
23281;BME280;11809;56.390;-3.266;2022-07-23T07:15:39;101154.31;;;19.04;62.86
23281;BME280;11809;56.390;-3.266;2022-07-23T07:18:05;101147.16;;;19.05;62.78
23281;BME280;11809;56.390;-3.266;2022-07-23T07:20:32;101146.19;;;19.06;62.80
23281;BME280;11809;56.390;-3.266;2022-07-23T07:22:59;101146.97;;;19.08;nan
23281;BME280;11809;56.390;-3.266;2022-07-23T07:25:26;101153.13;;;19.08;62.54
23281;BME280;11809;56.390;-3.266;2022-07-23T07:27:53;101143.34;;;19.09;62.60
23281;BME280;11809;56.390;-3.266;2022-07-23T07:30:19;101140.47;;;19.12;62.69
23281;BME280;11809;56.390;-3.266;2022-07-23T07:32:46;101129.72;;;19.13;62.63
23281;BME280;11809;56.390;-3.266;2022-07-23T07:35:23;101135.78;;;19.15;62.48
23281;BME280;11809;56.390;-3.266;2022-07-23T07:37:50;101131.19;;;19.17;62.84
23281;BME280;11809;56.390;-3.266;2022-07-23T07:40:16;101134.59;;;19.19;62.51
23281;BME280;11809;56.390;-3.266;2022-07-23T07:42:46;101131.84;;;19.21;62.52
23281;BME280;11809;56.390;-3.266;2022-07-23T07:45:13;101135.25;;;19.23;62.61
23281;BME280;11809;56.390;-3.266;2022-07-23T07:47:41;101136.97;;;19.24;62.54
23281;BME280;11809;56.390;-3.266;2022-07-23T07:50:08;101137.81;;;19.24;62.73
23281;BME280;11809;56.390;-3.266;2022-07-23T07:52:35;101133.13;;;19.28;62.63
23281;BME280;11809;56.390;-3.266;2022-07-23T07:55:05;101129.31;;;19.32;62.71
23281;BME280;11809;56.390;-3.266;2022-07-23T07:57:33;101125.69;;;19.33;62.81
23281;BME280;11809;56.390;-3.266;2022-07-23T08:00:00;101125.59;;;19.34;62.68
23281;BME280;11809;56.390;-3.266;2022-07-23T08:02:45;101121.84;;;19.37;62.48
23281;BME280;11809;56.390;-3.266;2022-07-23T08:05:13;101119.97;;;19.39;62.42
23281;BME280;11809;56.390;-3.266;2022-07-23T08:07:40;101117.19;;;19.41;62.88
23281;BME280;11809;56.390;-3.266;2022-07-23T08:10:07;101124.97;;;19.44;62.54
23281;BME280;11809;56.390;-3.266;2022-07-23T08:15:06;101117.41;;;19.50;62.60
23281;BME280;11809;56.390;-3.266;2022-07-23T08:17:39;101116.44;;;19.51;62.68
23281;BME280;11809;56.390;-3.266;2022-07-23T08:20:06;101107.38;;;19.54;62.97
23281;BME280;11809;56.390;-3.266;2022-07-23T08:25:17;101106.72;;;19.63;62.52
23281;BME280;11809;56.390;-3.266;2022-07-23T08:27:46;101097.66;;;19.65;62.69
23281;BME280;11809;56.390;-3.266;2022-07-23T08:30:13;101097.31;;;19.70;62.38
23281;BME280;11809;56.390;-3.266;2022-07-23T08:32:50;101092.63;;;19.73;62.55
23281;BME280;11809;56.390;-3.266;2022-07-23T08:35:18;101085.16;;;19.78;62.65
23281;BME280;11809;56.390;-3.266;2022-07-23T08:37:47;101083.00;;;19.83;62.85
23281;BME280;11809;56.390;-3.266;2022-07-23T08:40:14;101075.53;;;19.88;62.53
23281;BME280;11809;56.390;-3.266;2022-07-23T08:42:41;101074.47;;;19.91;62.35
23281;BME280;11809;56.390;-3.266;2022-07-23T08:45:08;101081.38;;;19.93;62.46
23281;BME280;11809;56.390;-3.266;2022-07-23T08:47:37;101078.50;;;19.96;62.54
23281;BME280;11809;56.390;-3.266;2022-07-23T08:50:04;101072.94;;;20.00;62.16
23281;BME280;11809;56.390;-3.266;2022-07-23T08:52:33;101074.66;;;20.01;62.43
23281;BME280;11809;56.390;-3.266;2022-07-23T08:55:00;101066.53;;;20.02;62.32
23281;BME280;11809;56.390;-3.266;2022-07-23T08:57:27;101063.66;;;20.05;62.33
23281;BME280;11809;56.390;-3.266;2022-07-23T08:59:54;101072.28;;;20.09;61.95
23281;BME280;11809;56.390;-3.266;2022-07-23T09:02:21;101071.22;;;20.11;62.23
23281;BME280;11809;56.390;-3.266;2022-07-23T09:04:48;101069.41;;;20.12;62.17
23281;BME280;11809;56.390;-3.266;2022-07-23T09:07:15;101067.56;;;20.12;61.87
23281;BME280;11809;56.390;-3.266;2022-07-23T09:09:42;101071.31;;;20.10;61.54
23281;BME280;11809;56.390;-3.266;2022-07-23T09:12:09;101074.19;;;20.07;61.52
23281;BME280;11809;56.390;-3.266;2022-07-23T09:14:45;101063.78;;;20.04;61.60
23281;BME280;11809;56.390;-3.266;2022-07-23T09:17:16;101073.47;;;20.05;61.49
23281;BME280;11809;56.390;-3.266;2022-07-23T09:19:44;101071.31;;;20.10;61.73
23281;BME280;11809;56.390;-3.266;2022-07-23T09:22:21;101077.06;;;20.16;61.78
23281;BME280;11809;56.390;-3.266;2022-07-23T09:30:21;101065.75;;;20.13;61.54
23281;BME280;11809;56.390;-3.266;2022-07-23T09:38:12;101055.94;;;20.13;61.39
23281;BME280;11809;56.390;-3.266;2022-07-23T09:40:40;101050.72;;;20.12;61.58
23281;BME280;11809;56.390;-3.266;2022-07-23T09:43:07;101045.59;;;20.09;61.42
23281;BME280;11809;56.390;-3.266;2022-07-23T09:45:34;101045.84;;;20.06;61.73
23281;BME280;11809;56.390;-3.266;2022-07-23T09:50:38;101036.25;;;20.03;61.93
23281;BME280;11809;56.390;-3.266;2022-07-23T09:53:05;101038.91;;;20.03;61.59
23281;BME280;11809;56.390;-3.266;2022-07-23T09:55:33;101041.34;;;20.06;61.36
23281;BME280;11809;56.390;-3.266;2022-07-23T09:58:05;101039.50;;;20.07;61.55
23281;BME280;11809;56.390;-3.266;2022-07-23T10:00:33;101029.69;;;20.07;61.05
23281;BME280;11809;56.390;-3.266;2022-07-23T10:03:00;101032.38;;;20.07;61.15
23281;BME280;11809;56.390;-3.266;2022-07-23T10:05:28;101031.28;;;20.10;61.27
23281;BME280;11809;56.390;-3.266;2022-07-23T10:18:36;101019.31;;;20.15;60.90
23281;BME280;11809;56.390;-3.266;2022-07-23T10:21:10;101010.69;;;20.12;61.08
23281;BME280;11809;56.390;-3.266;2022-07-23T10:34:12;101001.13;;;20.33;61.55
23281;BME280;11809;56.390;-3.266;2022-07-23T10:39:11;101004.41;;;20.36;61.26
23281;BME280;11809;56.390;-3.266;2022-07-23T10:41:41;101004.75;;;20.32;61.28
23281;BME280;11809;56.390;-3.266;2022-07-23T10:44:12;100996.97;;;20.29;60.99
23281;BME280;11809;56.390;-3.266;2022-07-23T10:46:59;101003.28;;;20.28;60.73
23281;BME280;11809;56.390;-3.266;2022-07-23T10:49:31;100989.09;;;20.27;60.94
23281;BME280;11809;56.390;-3.266;2022-07-23T10:54:41;100999.88;;;20.26;60.41
23281;BME280;11809;56.390;-3.266;2022-07-23T10:57:08;101004.34;;;20.25;60.79
23281;BME280;11809;56.390;-3.266;2022-07-23T11:02:22;100985.56;;;20.27;60.62
23281;BME280;11809;56.390;-3.266;2022-07-23T11:04:51;100988.47;;;20.24;60.83
23281;BME280;11809;56.390;-3.266;2022-07-23T11:07:18;100987.38;;;20.26;60.84
23281;BME280;11809;56.390;-3.266;2022-07-23T11:09:47;100988.97;;;20.29;60.67
23281;BME280;11809;56.390;-3.266;2022-07-23T11:32:36;100968.59;;;20.28;60.61
23281;BME280;11809;56.390;-3.266;2022-07-23T11:34:47;100963.47;;;20.25;60.78
23281;BME280;11809;56.390;-3.266;2022-07-23T11:39:54;100959.28;;;20.21;61.05
23281;BME280;11809;56.390;-3.266;2022-07-23T11:42:21;100953.00;;;20.22;61.02
23281;BME280;11809;56.390;-3.266;2022-07-23T14:17:01;100804.22;;;21.98;57.87
23281;BME280;11809;56.390;-3.266;2022-07-23T14:19:29;100811.38;;;21.45;58.82
23281;BME280;11809;56.390;-3.266;2022-07-23T14:21:57;100800.41;;;21.17;59.93
23281;BME280;11809;56.390;-3.266;2022-07-23T14:24:25;100803.31;;;21.02;60.20
23281;BME280;11809;56.390;-3.266;2022-07-23T14:27:00;100798.47;;;20.96;60.99
23281;BME280;11809;56.390;-3.266;2022-07-23T14:29:29;100798.00;;;20.91;60.36
23281;BME280;11809;56.390;-3.266;2022-07-23T14:31:58;100800.19;;;20.86;59.90
23281;BME280;11809;56.390;-3.266;2022-07-23T14:34:25;100802.38;;;20.81;59.98
23281;BME280;11809;56.390;-3.266;2022-07-23T14:36:54;100793.78;;;20.78;60.93
23281;BME280;11809;56.390;-3.266;2022-07-23T14:39:22;100793.63;;;20.79;60.94
23281;BME280;11809;56.390;-3.266;2022-07-23T14:41:52;100788.06;;;20.82;60.55
23281;BME280;11809;56.390;-3.266;2022-07-23T14:44:20;100783.44;;;20.84;60.50
23281;BME280;11809;56.390;-3.266;2022-07-23T14:46:47;100786.84;;;20.86;60.18
23281;BME280;11809;56.390;-3.266;2022-07-23T14:49:14;100772.38;;;20.89;60.20
23281;BME280;11809;56.390;-3.266;2022-07-23T14:51:41;100787.09;;;20.83;60.28
23281;BME280;11809;56.390;-3.266;2022-07-23T14:54:10;100773.97;;;20.80;60.53
23281;BME280;11809;56.390;-3.266;2022-07-23T14:56:38;100774.44;;;20.85;60.97
23281;BME280;11809;56.390;-3.266;2022-07-23T14:59:06;100768.16;;;20.86;60.93
23281;BME280;11809;56.390;-3.266;2022-07-23T15:01:34;100769.09;;;20.85;60.72
23281;BME280;11809;56.390;-3.266;2022-07-23T15:04:04;100761.94;;;20.86;60.45
23281;BME280;11809;56.390;-3.266;2022-07-23T15:06:52;100751.97;;;20.88;60.50
23281;BME280;11809;56.390;-3.266;2022-07-23T15:09:19;100752.69;;;20.90;60.15
23281;BME280;11809;56.390;-3.266;2022-07-23T15:11:47;100748.94;;;20.92;60.48
23281;BME280;11809;56.390;-3.266;2022-07-23T15:14:16;100740.66;;;20.95;59.99
23281;BME280;11809;56.390;-3.266;2022-07-23T15:16:56;100737.03;;;20.96;60.55
23281;BME280;11809;56.390;-3.266;2022-07-23T15:19:23;100740.41;;;20.98;60.33
23281;BME280;11809;56.390;-3.266;2022-07-23T15:21:50;100729.00;;;20.96;60.24
23281;BME280;11809;56.390;-3.266;2022-07-23T15:24:18;100721.00;;;20.96;60.57
23281;BME280;11809;56.390;-3.266;2022-07-23T15:26:45;100715.94;;;20.82;59.36
23281;BME280;11809;56.390;-3.266;2022-07-23T15:29:12;100724.91;;;20.81;59.77
23281;BME280;11809;56.390;-3.266;2022-07-23T15:31:40;100712.03;;;20.86;59.68
23281;BME280;11809;56.390;-3.266;2022-07-23T15:34:07;100714.97;;;20.83;59.58
23281;BME280;11809;56.390;-3.266;2022-07-23T15:36:34;100705.25;;;20.82;59.82
23281;BME280;11809;56.390;-3.266;2022-07-23T15:39:02;100702.94;;;20.89;59.81
23281;BME280;11809;56.390;-3.266;2022-07-23T15:41:30;100707.28;;;20.90;59.67
23281;BME280;11809;56.390;-3.266;2022-07-23T15:43:59;100696.59;;;20.90;59.59
23281;BME280;11809;56.390;-3.266;2022-07-23T15:46:46;100694.69;;;20.81;59.34
23281;BME280;11809;56.390;-3.266;2022-07-23T15:49:13;100693.38;;;20.75;58.86
23281;BME280;11809;56.390;-3.266;2022-07-23T15:51:44;100695.28;;;20.73;58.95
23281;BME280;11809;56.390;-3.266;2022-07-23T15:54:13;100682.69;;;20.75;59.28
23281;BME280;11809;56.390;-3.266;2022-07-23T15:56:42;100691.66;;;20.74;59.30
23281;BME280;11809;56.390;-3.266;2022-07-23T15:59:09;100692.50;;;20.75;58.88
23281;BME280;11809;56.390;-3.266;2022-07-23T16:01:36;100682.72;;;20.53;59.04
23281;BME280;11809;56.390;-3.266;2022-07-23T16:04:04;100684.06;;;20.47;59.56
23281;BME280;11809;56.390;-3.266;2022-07-23T16:06:35;100684.06;;;20.47;59.96
23281;BME280;11809;56.390;-3.266;2022-07-23T16:09:03;100666.72;;;20.42;59.51
23281;BME280;11809;56.390;-3.266;2022-07-23T16:11:32;100665.28;;;20.38;59.61
23281;BME280;11809;56.390;-3.266;2022-07-23T16:13:59;100661.75;;;20.37;59.49
23281;BME280;11809;56.390;-3.266;2022-07-23T16:16:26;100648.78;;;20.33;59.77
23281;BME280;11809;56.390;-3.266;2022-07-23T16:18:54;100650.22;;;20.26;59.79
23281;BME280;11809;56.390;-3.266;2022-07-23T16:21:22;100652.91;;;20.26;60.36
23281;BME280;11809;56.390;-3.266;2022-07-23T16:23:50;100649.38;;;20.25;60.11
23281;BME280;11809;56.390;-3.266;2022-07-23T16:26:19;100658.25;;;20.26;60.08